createdAt,value
2022-08-01T00:00:18.367Z,20.51
2022-08-01T00:02:45.472Z,20.37
2022-08-01T00:05:12.993Z,20.47
2022-08-01T00:07:40.195Z,20.50
2022-08-01T00:10:10.684Z,20.53
2022-08-01T00:12:38.218Z,20.51
2022-08-01T00:15:07.150Z,20.51
2022-08-01T00:17:34.362Z,20.64
2022-08-01T00:20:03.491Z,20.57
2022-08-01T00:22:32.240Z,20.61
2022-08-01T00:24:59.672Z,20.51
2022-08-01T00:27:26.985Z,20.65
2022-08-01T00:30:13.247Z,20.58
2022-08-01T00:32:43.614Z,20.53
2022-08-01T00:35:11.359Z,20.47
2022-08-01T00:37:38.484Z,20.33
2022-08-01T00:40:06.752Z,20.70
2022-08-01T00:42:33.980Z,20.59
2022-08-01T00:45:01.062Z,20.53
2022-08-01T00:47:28.102Z,20.10
2022-08-01T00:49:55.294Z,20.37
2022-08-01T00:52:22.482Z,20.19
2022-08-01T00:54:49.550Z,20.28
2022-08-01T00:57:16.716Z,20.43
2022-08-01T01:00:05.913Z,20.38
2022-08-01T01:02:33.674Z,20.36
2022-08-01T01:05:00.770Z,20.38
2022-08-01T01:07:50.021Z,20.33
2022-08-01T01:10:45.368Z,20.50
2022-08-01T01:13:21.471Z,20.12
2022-08-01T01:15:56.211Z,20.31
2022-08-01T01:18:33.776Z,20.28
2022-08-01T01:21:36.254Z,20.28
2022-08-01T01:24:22.662Z,20.32
2022-08-01T01:27:07.388Z,20.24
2022-08-01T01:29:59.647Z,20.32
2022-08-01T01:32:34.836Z,20.45
2022-08-01T01:35:10.040Z,20.17
2022-08-01T01:37:40.651Z,20.39
2022-08-01T01:40:10.627Z,20.36
2022-08-01T01:42:38.651Z,20.28
2022-08-01T01:45:07.323Z,20.26
2022-08-01T01:47:37.254Z,20.33
2022-08-01T01:50:05.561Z,20.30
2022-08-01T01:52:32.915Z,20.28
2022-08-01T01:55:02.424Z,20.27
2022-08-01T01:57:31.027Z,20.23
2022-08-01T01:59:59.459Z,20.43
2022-08-01T02:02:27.932Z,20.33
2022-08-01T02:04:56.407Z,20.45
2022-08-01T02:07:25.963Z,20.25
2022-08-01T02:09:54.911Z,20.27
2022-08-01T02:12:25.342Z,20.37
2022-08-01T02:14:55.510Z,20.29
2022-08-01T02:17:25.449Z,20.23
2022-08-01T02:19:55.295Z,20.05
2022-08-01T02:22:30.096Z,20.10
2022-08-01T02:25:20.499Z,19.95
2022-08-01T02:27:59.115Z,20.26
2022-08-01T02:30:26.841Z,20.16
2022-08-01T02:33:03.008Z,20.18
2022-08-01T02:35:33.815Z,20.14
2022-08-01T02:38:04.539Z,20.11
2022-08-01T02:40:34.744Z,19.89
2022-08-01T02:43:04.313Z,19.99
2022-08-01T02:45:33.174Z,20.23
2022-08-01T02:48:06.990Z,20.16
2022-08-01T02:50:35.727Z,20.13
2022-08-01T02:53:04.869Z,20.12
2022-08-01T02:55:33.583Z,20.19
2022-08-01T02:58:02.741Z,20.17
2022-08-01T03:00:31.332Z,20.02
2022-08-01T03:03:00.364Z,20.01
2022-08-01T03:05:28.276Z,20.04
2022-08-01T03:07:56.854Z,19.96
2022-08-01T03:10:33.537Z,19.86
2022-08-01T03:13:02.518Z,19.62
2022-08-01T03:15:33.052Z,19.86
2022-08-01T03:18:01.829Z,19.96
2022-08-01T03:20:30.971Z,19.77
2022-08-01T03:23:00.838Z,19.81
2022-08-01T03:25:30.048Z,19.78
2022-08-01T03:28:00.389Z,19.95
2022-08-01T03:30:28.691Z,19.69
2022-08-01T03:32:56.498Z,19.76
2022-08-01T03:35:37.010Z,19.86
2022-08-01T03:38:16.558Z,19.88
2022-08-01T03:40:57.732Z,19.90
2022-08-01T03:43:33.339Z,19.89
2022-08-01T03:46:08.362Z,19.72
2022-08-01T03:48:44.663Z,19.82
2022-08-01T03:51:13.786Z,19.79
2022-08-01T03:53:43.243Z,19.68
2022-08-01T03:56:12.179Z,19.73
2022-08-01T03:58:43.245Z,19.74
2022-08-01T04:01:15.479Z,19.73
2022-08-01T04:03:44.221Z,19.86
2022-08-01T04:06:11.483Z,19.78
2022-08-01T04:08:39.461Z,19.65
2022-08-01T04:11:09.253Z,19.82
2022-08-01T04:13:36.996Z,19.71
2022-08-01T04:16:04.865Z,19.59
2022-08-01T04:18:31.981Z,19.60
2022-08-01T04:20:59.074Z,19.86
2022-08-01T04:23:28.656Z,19.84
2022-08-01T04:25:56.882Z,19.89
2022-08-01T04:28:25.683Z,19.80
2022-08-01T04:30:59.863Z,19.84
2022-08-01T04:33:30.839Z,19.64
2022-08-01T04:36:03.321Z,19.70
2022-08-01T04:38:34.248Z,19.59
2022-08-01T04:41:09.331Z,19.95
2022-08-01T04:43:38.183Z,19.81
2022-08-01T04:46:07.720Z,19.75
2022-08-01T04:48:37.918Z,19.77
2022-08-01T04:51:05.846Z,19.54
2022-08-01T04:53:33.411Z,19.88
2022-08-01T04:56:00.482Z,19.93
2022-08-01T04:58:27.556Z,19.81
2022-08-01T05:00:54.690Z,19.88
2022-08-01T05:03:21.795Z,19.99
2022-08-01T05:05:48.823Z,20.06
2022-08-01T05:08:17.274Z,19.95
2022-08-01T05:10:44.326Z,19.86
2022-08-01T05:13:11.904Z,19.89
2022-08-01T05:15:42.654Z,19.86
2022-08-01T05:18:09.733Z,19.86
2022-08-01T05:20:38.106Z,19.98
2022-08-01T05:23:06.201Z,20.09
2022-08-01T05:25:56.090Z,20.07
2022-08-01T05:28:21.332Z,20.18
2022-08-01T05:30:48.393Z,20.28
2022-08-01T05:33:15.416Z,20.26
2022-08-01T05:35:47.524Z,20.26
2022-08-01T05:38:15.539Z,20.26
2022-08-01T05:40:42.607Z,20.28
2022-08-01T05:43:09.649Z,20.20
2022-08-01T05:45:36.817Z,20.22
2022-08-01T05:48:03.962Z,20.20
2022-08-01T05:50:31.027Z,20.29
2022-08-01T05:52:58.069Z,20.36
2022-08-01T05:55:25.130Z,20.43
2022-08-01T05:57:52.152Z,20.39
2022-08-01T06:00:19.347Z,20.57
2022-08-01T06:02:46.517Z,20.44
2022-08-01T06:05:13.859Z,20.49
2022-08-01T06:07:41.104Z,20.46
2022-08-01T06:10:08.890Z,20.50
2022-08-01T06:12:36.973Z,20.69
2022-08-01T06:15:05.773Z,20.52
2022-08-01T06:17:32.917Z,20.30
2022-08-01T06:20:00.717Z,20.32
2022-08-01T06:22:27.796Z,20.38
2022-08-01T06:24:55.012Z,20.59
2022-08-01T06:27:22.764Z,20.34
2022-08-01T06:29:53.284Z,20.93
2022-08-01T06:32:27.180Z,21.03
2022-08-01T06:34:55.751Z,21.18
2022-08-01T06:37:23.679Z,21.07
2022-08-01T06:39:51.046Z,21.00
2022-08-01T06:42:18.570Z,21.29
2022-08-01T06:44:46.046Z,20.99
2022-08-01T06:47:13.687Z,21.18
2022-08-01T06:49:40.893Z,21.21
2022-08-01T06:52:08.431Z,21.26
2022-08-01T06:54:35.789Z,21.37
2022-08-01T06:57:06.411Z,21.60
2022-08-01T06:59:33.588Z,21.46
2022-08-01T07:02:02.116Z,21.52
2022-08-01T07:04:29.247Z,21.37
2022-08-01T07:06:57.038Z,21.27
2022-08-01T07:09:24.216Z,21.35
2022-08-01T07:11:53.271Z,21.52
2022-08-01T07:14:23.866Z,21.48
2022-08-01T07:16:51.443Z,21.47
2022-08-01T07:19:19.093Z,21.28
2022-08-01T07:21:46.112Z,21.47
2022-08-01T07:24:20.862Z,21.35
2022-08-01T07:26:53.452Z,21.42
2022-08-01T07:29:23.122Z,21.49
2022-08-01T07:31:50.249Z,21.28
2022-08-01T07:34:17.320Z,21.66
2022-08-01T07:36:44.348Z,21.63
2022-08-01T07:39:11.519Z,21.54
2022-08-01T07:41:45.517Z,21.78
2022-08-01T07:44:25.652Z,21.92
2022-08-01T07:46:56.554Z,22.11
2022-08-01T07:49:23.644Z,22.25
2022-08-01T07:52:03.276Z,22.25
2022-08-01T07:54:35.013Z,22.47
2022-08-01T07:57:03.664Z,22.25
2022-08-01T07:59:31.174Z,22.45
2022-08-01T08:01:58.522Z,22.56
2022-08-01T08:04:26.721Z,22.35
2022-08-01T08:06:54.537Z,22.51
2022-08-01T08:09:21.824Z,22.41
2022-08-01T08:11:48.926Z,22.38
2022-08-01T08:14:17.742Z,22.58
2022-08-01T08:16:45.410Z,22.84
2022-08-01T08:19:12.834Z,22.91
2022-08-01T08:21:40.561Z,23.24
2022-08-01T08:24:26.643Z,23.40
2022-08-01T08:26:59.067Z,23.70
2022-08-01T08:29:27.342Z,23.75
2022-08-01T08:31:56.964Z,23.80
2022-08-01T08:34:25.887Z,23.69
2022-08-01T08:36:53.866Z,23.46
2022-08-01T08:39:21.688Z,23.09
2022-08-01T08:41:49.104Z,23.06
2022-08-01T08:44:18.490Z,23.25
2022-08-01T08:46:48.123Z,23.42
2022-08-01T08:49:22.468Z,23.64
2022-08-01T08:51:52.581Z,23.44
2022-08-01T08:54:31.341Z,23.27
2022-08-01T08:57:00.787Z,23.56
2022-08-01T08:59:29.141Z,23.86
2022-08-01T09:01:57.227Z,24.17
2022-08-01T09:04:27.011Z,24.42
2022-08-01T09:06:55.168Z,24.58
2022-08-01T09:09:23.750Z,23.95
2022-08-01T09:11:57.007Z,24.04
2022-08-01T09:14:30.774Z,23.85
2022-08-01T09:17:11.917Z,23.97
2022-08-01T09:19:44.342Z,24.25
2022-08-01T09:22:13.792Z,24.32
2022-08-01T09:24:42.445Z,24.41
2022-08-01T09:27:20.994Z,23.66
2022-08-01T09:30:00.749Z,24.16
2022-08-01T09:32:35.843Z,24.38
2022-08-01T09:35:23.875Z,24.67
2022-08-01T09:37:51.023Z,24.86
2022-08-01T09:40:18.145Z,24.84
2022-08-01T09:42:49.654Z,24.86
2022-08-01T09:45:41.781Z,24.99
2022-08-01T09:48:13.035Z,25.19
2022-08-01T09:50:44.712Z,25.22
2022-08-01T09:53:25.657Z,25.18
2022-08-01T09:56:13.005Z,24.92
2022-08-01T09:59:01.974Z,25.27
2022-08-01T10:01:43.721Z,25.64
2022-08-01T10:04:15.654Z,25.91
2022-08-01T10:06:53.315Z,26.32
2022-08-01T10:09:35.862Z,25.92
2022-08-01T10:12:15.135Z,25.14
2022-08-01T10:14:46.213Z,24.65
2022-08-01T10:17:18.094Z,24.58
2022-08-01T10:19:47.267Z,24.60
2022-08-01T10:22:18.776Z,24.71
2022-08-01T10:24:48.709Z,24.94
2022-08-01T10:27:21.633Z,24.67
2022-08-01T10:30:20.167Z,24.60
2022-08-01T10:32:53.485Z,24.77
2022-08-01T10:35:45.547Z,25.14
2022-08-01T10:38:13.581Z,24.85
2022-08-01T10:40:42.976Z,25.03
2022-08-01T10:43:21.646Z,25.08
2022-08-01T10:45:50.941Z,25.03
2022-08-01T10:48:36.217Z,25.11
2022-08-01T10:51:18.010Z,25.47
2022-08-01T10:53:54.596Z,25.42
2022-08-01T10:56:27.257Z,25.65
2022-08-01T10:59:06.540Z,26.00
2022-08-01T11:01:45.418Z,25.30
2022-08-01T11:04:17.746Z,25.21
2022-08-01T11:07:02.926Z,25.18
2022-08-01T11:09:41.568Z,25.26
2022-08-01T11:12:23.407Z,25.48
2022-08-01T11:15:00.429Z,25.48
2022-08-01T11:17:42.071Z,25.25
2022-08-01T11:20:17.348Z,25.45
2022-08-01T11:22:59.821Z,25.74
2022-08-01T11:26:06.700Z,26.07
2022-08-01T11:28:28.218Z,26.58
2022-08-01T11:31:11.006Z,26.43
2022-08-01T11:33:42.280Z,26.67
2022-08-01T11:36:12.680Z,26.38
2022-08-01T11:38:42.485Z,26.23
2022-08-01T11:41:38.234Z,26.42
2022-08-01T11:44:28.136Z,26.37
2022-08-01T11:47:11.630Z,26.41
2022-08-01T11:49:43.500Z,26.79
2022-08-01T11:52:19.734Z,26.68
2022-08-01T11:55:03.519Z,26.90
2022-08-01T11:57:38.139Z,26.56
2022-08-01T12:00:15.511Z,26.38
2022-08-01T12:02:46.790Z,26.39
2022-08-01T12:05:17.416Z,26.52
2022-08-01T12:07:45.922Z,26.52
2022-08-01T12:10:16.416Z,26.38
2022-08-01T12:12:47.780Z,26.36
2022-08-01T12:15:15.956Z,26.43
2022-08-01T12:17:58.563Z,26.87
2022-08-01T12:20:32.215Z,27.01
2022-08-01T12:23:13.895Z,26.86
2022-08-01T12:25:41.470Z,26.79
2022-08-01T12:28:10.125Z,27.33
2022-08-01T12:30:38.664Z,27.50
2022-08-01T12:33:08.015Z,27.37
2022-08-01T12:35:37.466Z,27.51
2022-08-01T12:38:14.396Z,27.28
2022-08-01T12:40:45.604Z,27.26
2022-08-01T12:43:27.607Z,27.49
2022-08-01T12:45:59.241Z,27.64
2022-08-01T12:48:27.374Z,28.09
2022-08-01T12:50:58.370Z,27.92
2022-08-01T12:53:39.802Z,27.58
2022-08-01T12:56:09.051Z,27.41
2022-08-01T12:58:36.360Z,26.56
2022-08-01T13:01:09.152Z,26.42
2022-08-01T13:03:36.342Z,26.43
2022-08-01T13:06:11.775Z,26.49
2022-08-01T13:08:39.411Z,26.50
2022-08-01T13:11:18.288Z,26.78
2022-08-01T13:13:51.497Z,27.02
2022-08-01T13:16:31.242Z,27.31
2022-08-01T13:19:07.778Z,27.28
2022-08-01T13:21:52.463Z,27.15
2022-08-01T13:24:29.383Z,27.22
2022-08-01T13:27:04.043Z,27.17
2022-08-01T13:29:43.088Z,27.59
2022-08-01T13:32:28.641Z,27.73
2022-08-01T13:35:09.081Z,27.69
2022-08-01T13:37:38.557Z,27.65
2022-08-01T13:40:10.953Z,27.12
2022-08-01T13:42:38.551Z,27.13
2022-08-01T13:45:13.997Z,26.94
2022-08-01T13:48:03.328Z,26.61
2022-08-01T13:50:30.428Z,26.86
2022-08-01T13:52:58.133Z,26.65
2022-08-01T13:55:25.155Z,26.91
2022-08-01T13:57:52.342Z,26.34
2022-08-01T14:00:19.846Z,26.40
2022-08-01T14:02:47.115Z,26.42
2022-08-01T14:05:14.179Z,26.53
2022-08-01T14:07:41.565Z,26.70
2022-08-01T14:10:18.947Z,26.52
2022-08-01T14:12:50.486Z,26.68
2022-08-01T14:15:37.545Z,26.35
2022-08-01T14:18:06.576Z,26.77
2022-08-01T14:20:35.426Z,26.47
2022-08-01T14:23:02.506Z,26.84
2022-08-01T14:25:58.672Z,26.92
2022-08-01T14:28:17.321Z,26.83
2022-08-01T14:30:44.444Z,27.52
2022-08-01T14:33:12.682Z,27.59
2022-08-01T14:36:01.927Z,27.64
2022-08-01T14:38:31.652Z,27.42
2022-08-01T14:41:01.520Z,27.41
2022-08-01T14:43:33.047Z,27.09
2022-08-01T14:46:02.015Z,27.07
2022-08-01T14:48:30.112Z,27.57
2022-08-01T14:50:58.571Z,27.49
2022-08-01T14:53:25.701Z,27.74
2022-08-01T14:55:52.956Z,27.35
2022-08-01T14:58:19.991Z,27.43
2022-08-01T15:00:47.537Z,27.40
2022-08-01T15:03:14.711Z,27.74
2022-08-01T15:05:41.805Z,27.76
2022-08-01T15:08:08.950Z,27.90
2022-08-01T15:10:36.030Z,27.94
2022-08-01T15:13:03.191Z,27.75
2022-08-01T15:15:30.780Z,27.42
2022-08-01T15:17:57.850Z,27.22
2022-08-01T15:20:26.186Z,27.18
2022-08-01T15:22:54.080Z,27.08
2022-08-01T15:25:21.441Z,27.73
2022-08-01T15:27:48.809Z,28.34
2022-08-01T15:30:15.888Z,28.59
2022-08-01T15:32:43.107Z,28.42
2022-08-01T15:35:11.104Z,27.83
2022-08-01T15:37:42.796Z,27.49
2022-08-01T15:40:12.274Z,27.08
2022-08-01T15:42:39.979Z,27.05
2022-08-01T15:45:10.573Z,27.11
2022-08-01T15:47:40.384Z,27.61
2022-08-01T15:50:08.003Z,27.96
2022-08-01T15:52:35.331Z,28.14
2022-08-01T15:55:02.737Z,27.99
2022-08-01T15:57:29.809Z,28.49
2022-08-01T15:59:56.966Z,28.17
2022-08-01T16:02:24.320Z,28.06
2022-08-01T16:04:51.414Z,27.67
2022-08-01T16:07:18.480Z,27.03
2022-08-01T16:09:45.532Z,26.80
2022-08-01T16:12:12.603Z,26.77
2022-08-01T16:14:39.660Z,26.86
2022-08-01T16:17:06.905Z,26.56
2022-08-01T16:19:33.938Z,26.56
2022-08-01T16:22:00.966Z,26.90
2022-08-01T16:24:30.886Z,27.56
2022-08-01T16:26:58.435Z,27.84
2022-08-01T16:29:30.492Z,27.92
2022-08-01T16:32:08.687Z,27.36
2022-08-01T16:34:46.812Z,27.26
2022-08-01T16:37:15.154Z,26.75
2022-08-01T16:39:42.288Z,26.40
2022-08-01T16:42:09.617Z,26.22
2022-08-01T16:44:37.778Z,26.02
2022-08-01T16:47:05.936Z,25.94
2022-08-01T16:49:33.362Z,25.72
2022-08-01T16:52:00.439Z,25.75
2022-08-01T16:54:27.921Z,25.77
2022-08-01T16:56:56.012Z,25.73
2022-08-01T16:59:24.879Z,25.45
2022-08-01T17:01:59.698Z,25.44
2022-08-01T17:04:30.324Z,25.37
2022-08-01T17:06:57.862Z,25.42
2022-08-01T17:09:24.953Z,25.46
2022-08-01T17:11:52.011Z,25.30
2022-08-01T17:14:19.044Z,25.35
2022-08-01T17:16:46.493Z,25.35
2022-08-01T17:19:14.813Z,25.31
2022-08-01T17:21:42.651Z,25.04
2022-08-01T17:24:12.329Z,24.83
2022-08-01T17:26:43.609Z,24.88
2022-08-01T17:29:10.650Z,25.11
2022-08-01T17:31:37.681Z,25.25
2022-08-01T17:34:04.734Z,25.73
2022-08-01T17:36:31.884Z,26.49
2022-08-01T17:38:59.631Z,26.01
2022-08-01T17:41:26.728Z,25.92
2022-08-01T17:43:53.898Z,25.58
2022-08-01T17:46:20.946Z,25.40
2022-08-01T17:48:48.276Z,25.28
2022-08-01T17:51:20.754Z,24.60
2022-08-01T17:53:57.062Z,24.52
2022-08-01T17:56:26.910Z,24.36
2022-08-01T17:58:54.211Z,24.53
2022-08-01T18:01:21.855Z,24.22
2022-08-01T18:03:54.000Z,24.42
2022-08-01T18:06:23.443Z,24.21
2022-08-01T18:08:55.430Z,24.31
2022-08-01T18:11:24.605Z,24.40
2022-08-01T18:13:51.909Z,23.89
2022-08-01T18:16:19.228Z,23.78
2022-08-01T18:18:46.354Z,23.93
2022-08-01T18:21:13.471Z,23.48
2022-08-01T18:23:40.706Z,23.43
2022-08-01T18:26:18.357Z,23.60
2022-08-01T18:28:46.276Z,23.72
2022-08-01T18:31:16.542Z,23.63
2022-08-01T18:33:43.951Z,23.54
2022-08-01T18:36:14.163Z,23.58
2022-08-01T18:38:59.217Z,23.48
2022-08-01T18:41:26.666Z,23.51
2022-08-01T18:44:04.222Z,23.37
2022-08-01T18:46:38.945Z,23.43
2022-08-01T18:49:08.670Z,23.28
2022-08-01T18:51:40.217Z,23.11
2022-08-01T18:54:10.241Z,22.99
2022-08-01T18:56:37.318Z,22.93
2022-08-01T18:59:04.459Z,23.03
2022-08-01T19:01:31.603Z,22.84
2022-08-01T19:03:58.697Z,22.88
2022-08-01T19:06:28.181Z,22.79
2022-08-01T19:08:58.378Z,22.79
2022-08-01T19:11:29.242Z,22.80
2022-08-01T19:13:56.742Z,22.62
2022-08-01T19:16:24.280Z,22.63
2022-08-01T19:18:51.364Z,22.61
2022-08-01T19:21:18.928Z,22.46
2022-08-01T19:24:04.939Z,22.49
2022-08-01T19:26:33.851Z,22.38
2022-08-01T19:29:15.318Z,22.33
2022-08-01T19:31:48.539Z,22.34
2022-08-01T19:34:19.217Z,22.18
2022-08-01T19:36:48.580Z,21.85
2022-08-01T19:39:18.156Z,21.96
2022-08-01T19:41:46.001Z,21.86
2022-08-01T19:44:15.146Z,21.70
2022-08-01T19:46:43.295Z,21.53
2022-08-01T19:49:16.645Z,21.41
2022-08-01T19:51:56.423Z,21.36
2022-08-01T19:54:27.177Z,21.08
2022-08-01T19:56:54.997Z,21.14
2022-08-01T19:59:23.740Z,21.06
2022-08-01T20:01:55.286Z,20.97
2022-08-01T20:04:23.065Z,20.93
2022-08-01T20:06:50.771Z,20.85
2022-08-01T20:09:18.156Z,20.67
2022-08-01T20:11:47.147Z,20.59
2022-08-01T20:14:17.958Z,20.58
2022-08-01T20:16:45.238Z,20.48
2022-08-01T20:19:12.864Z,20.43
2022-08-01T20:22:02.308Z,20.36
2022-08-01T20:24:45.938Z,20.30
2022-08-01T20:27:15.485Z,20.26
2022-08-01T20:29:45.020Z,20.17
2022-08-01T20:32:14.274Z,20.22
2022-08-01T20:34:42.921Z,19.88
2022-08-01T20:37:13.051Z,20.11
2022-08-01T20:39:43.912Z,20.25
2022-08-01T20:42:12.700Z,20.16
2022-08-01T20:44:41.027Z,20.06
2022-08-01T20:47:08.833Z,19.70
2022-08-01T20:49:37.375Z,19.94
2022-08-01T20:52:12.197Z,19.63
2022-08-01T20:54:43.049Z,19.53
2022-08-01T20:57:21.394Z,19.56
2022-08-01T20:59:57.546Z,19.67
2022-08-01T21:02:36.982Z,19.55
2022-08-01T21:05:05.496Z,19.63
2022-08-01T21:07:34.248Z,19.53
2022-08-01T21:10:08.756Z,19.41
2022-08-01T21:12:50.108Z,19.42
2022-08-01T21:15:38.573Z,19.28
2022-08-01T21:19:10.065Z,19.25
2022-08-01T21:21:48.197Z,19.37
2022-08-01T21:24:22.407Z,19.16
2022-08-01T21:26:51.227Z,19.05
2022-08-01T21:29:20.085Z,19.02
2022-08-01T21:32:08.622Z,18.98
2022-08-01T21:34:38.201Z,18.67
2022-08-01T21:37:09.709Z,18.87
2022-08-01T21:39:38.581Z,18.85
2022-08-01T21:42:09.134Z,18.61
2022-08-01T21:44:39.220Z,18.70
2022-08-01T21:47:06.563Z,18.56
2022-08-01T21:49:40.324Z,18.48
2022-08-01T21:52:18.138Z,18.51
2022-08-01T21:55:11.038Z,18.36
2022-08-01T21:58:07.149Z,18.51
2022-08-01T22:00:39.348Z,18.38
2022-08-01T22:03:46.362Z,18.39
2022-08-01T22:06:14.849Z,18.08
2022-08-01T22:08:53.631Z,18.28
2022-08-01T22:11:28.828Z,18.14
2022-08-01T22:14:00.007Z,18.12
2022-08-01T22:16:27.570Z,17.95
2022-08-01T22:18:54.881Z,17.92
2022-08-01T22:21:22.314Z,17.99
2022-08-01T22:23:53.024Z,17.71
2022-08-01T22:26:25.740Z,17.88
2022-08-01T22:28:55.825Z,17.77
2022-08-01T22:31:23.605Z,17.76
2022-08-01T22:33:51.267Z,17.57
2022-08-01T22:36:20.720Z,17.59
2022-08-01T22:38:47.906Z,17.60
2022-08-01T22:41:21.327Z,17.55
2022-08-01T22:44:03.408Z,17.49
2022-08-01T22:46:42.145Z,17.38
2022-08-01T22:49:11.941Z,17.45
2022-08-01T22:51:54.480Z,17.42
2022-08-01T22:54:30.093Z,17.40
2022-08-01T22:57:00.839Z,17.43
2022-08-01T22:59:42.675Z,17.38
2022-08-01T23:02:16.188Z,17.36
2022-08-01T23:04:46.662Z,17.37
2022-08-01T23:07:20.202Z,17.21
2022-08-01T23:09:54.213Z,17.24
2022-08-01T23:12:27.111Z,17.22
2022-08-01T23:14:56.882Z,17.05
2022-08-01T23:17:29.945Z,17.04
2022-08-01T23:20:03.508Z,16.74
2022-08-01T23:22:32.584Z,17.00
2022-08-01T23:25:04.525Z,17.00
2022-08-01T23:27:54.152Z,16.95
2022-08-01T23:30:25.623Z,16.92
2022-08-01T23:32:53.484Z,16.62
2022-08-01T23:35:20.773Z,16.83
2022-08-01T23:37:48.061Z,16.53
2022-08-01T23:40:15.081Z,16.76
2022-08-01T23:42:42.211Z,16.41
2022-08-01T23:45:09.682Z,16.58
2022-08-01T23:47:36.730Z,16.57
2022-08-01T23:50:04.207Z,16.49
2022-08-01T23:52:32.575Z,16.45
2022-08-01T23:55:03.453Z,16.50
2022-08-01T23:57:42.372Z,16.13
